sensor_id;sensor_type;location;lat;lon;timestamp;pressure;altitude;pressure_sealevel;temperature;humidity
76864;BME280;65834;52.364;9.754;2023-05-18T00:02:16;102121.88;;;9.23;53.60
76864;BME280;65834;52.364;9.754;2023-05-18T00:04:47;102128.56;;;9.29;53.35
76864;BME280;65834;52.364;9.754;2023-05-18T00:07:16;102119.75;;;9.27;53.46
76864;BME280;65834;52.364;9.754;2023-05-18T00:09:46;102122.63;;;9.25;53.70
76864;BME280;65834;52.364;9.754;2023-05-18T00:12:16;102116.19;;;9.17;53.93
76864;BME280;65834;52.364;9.754;2023-05-18T00:14:45;102117.19;;;9.06;54.18
76864;BME280;65834;52.364;9.754;2023-05-18T00:17:17;102121.59;;;8.98;54.32
76864;BME280;65834;52.364;9.754;2023-05-18T00:19:49;102120.59;;;9.08;54.32
76864;BME280;65834;52.364;9.754;2023-05-18T00:22:18;102122.88;;;9.03;54.11
76864;BME280;65834;52.364;9.754;2023-05-18T00:24:48;102126.16;;;9.07;54.18
76864;BME280;65834;52.364;9.754;2023-05-18T00:27:17;102123.56;;;9.05;54.18
76864;BME280;65834;52.364;9.754;2023-05-18T00:29:47;102123.28;;;8.99;54.53
76864;BME280;65834;52.364;9.754;2023-05-18T00:32:19;102140.03;;;8.93;54.58
76864;BME280;65834;52.364;9.754;2023-05-18T00:34:50;102128.97;;;8.96;54.77
76864;BME280;65834;52.364;9.754;2023-05-18T00:37:21;102129.28;;;9.12;54.10
76864;BME280;65834;52.364;9.754;2023-05-18T00:39:51;102129.44;;;9.10;54.13
76864;BME280;65834;52.364;9.754;2023-05-18T00:42:20;102129.72;;;9.07;54.26
76864;BME280;65834;52.364;9.754;2023-05-18T00:44:50;102124.97;;;8.90;54.71
76864;BME280;65834;52.364;9.754;2023-05-18T00:47:22;102127.69;;;8.90;54.65
76864;BME280;65834;52.364;9.754;2023-05-18T00:49:53;102132.41;;;8.98;54.26
76864;BME280;65834;52.364;9.754;2023-05-18T00:52:23;102123.72;;;8.94;54.60
76864;BME280;65834;52.364;9.754;2023-05-18T00:54:52;102122.72;;;8.95;54.56
76864;BME280;65834;52.364;9.754;2023-05-18T00:57:24;102132.22;;;8.90;54.88
76864;BME280;65834;52.364;9.754;2023-05-18T00:59:54;102124.84;;;8.92;54.73
76864;BME280;65834;52.364;9.754;2023-05-18T01:02:27;102140.19;;;8.91;55.06
76864;BME280;65834;52.364;9.754;2023-05-18T01:04:57;102145.00;;;8.88;54.67
76864;BME280;65834;52.364;9.754;2023-05-18T01:07:30;102130.81;;;8.86;54.76
76864;BME280;65834;52.364;9.754;2023-05-18T01:09:59;102136.78;;;8.80;54.91
76864;BME280;65834;52.364;9.754;2023-05-18T01:12:32;102141.31;;;8.79;54.95
76864;BME280;65834;52.364;9.754;2023-05-18T01:15:07;102142.44;;;8.86;54.83
76864;BME280;65834;52.364;9.754;2023-05-18T01:17:53;102138.19;;;8.84;54.90
76864;BME280;65834;52.364;9.754;2023-05-18T01:20:36;102145.69;;;8.80;55.05
76864;BME280;65834;52.364;9.754;2023-05-18T01:26:21;102140.00;;;8.64;57.03
76864;BME280;65834;52.364;9.754;2023-05-18T01:28:58;102143.44;;;8.85;56.63
76864;BME280;65834;52.364;9.754;2023-05-18T01:31:28;102141.59;;;8.86;57.09
76864;BME280;65834;52.364;9.754;2023-05-18T01:34:01;102142.72;;;8.74;57.43
76864;BME280;65834;52.364;9.754;2023-05-18T01:36:31;102146.94;;;8.66;57.38
76864;BME280;65834;52.364;9.754;2023-05-18T01:39:00;102136.59;;;8.71;57.09
76864;BME280;65834;52.364;9.754;2023-05-18T01:41:36;102142.78;;;8.53;56.39
76864;BME280;65834;52.364;9.754;2023-05-18T01:44:10;102143.16;;;8.39;57.39
76864;BME280;65834;52.364;9.754;2023-05-18T01:46:47;102138.94;;;8.46;57.81
76864;BME280;65834;52.364;9.754;2023-05-18T01:49:26;102155.63;;;8.30;58.41
76864;BME280;65834;52.364;9.754;2023-05-18T01:52:02;102142.91;;;8.42;57.93
76864;BME280;65834;52.364;9.754;2023-05-18T01:54:33;102150.13;;;8.41;58.04
76864;BME280;65834;52.364;9.754;2023-05-18T01:57:08;102149.00;;;8.44;58.00
76864;BME280;65834;52.364;9.754;2023-05-18T01:59:38;102144.19;;;8.47;57.69
76864;BME280;65834;52.364;9.754;2023-05-18T02:02:10;102145.16;;;8.46;58.04
76864;BME280;65834;52.364;9.754;2023-05-18T02:04:39;102152.22;;;8.38;58.20
76864;BME280;65834;52.364;9.754;2023-05-18T02:07:10;102149.13;;;8.42;58.07
76864;BME280;65834;52.364;9.754;2023-05-18T02:09:41;102155.78;;;8.38;58.33
76864;BME280;65834;52.364;9.754;2023-05-18T02:12:13;102148.41;;;8.40;58.54
76864;BME280;65834;52.364;9.754;2023-05-18T02:14:43;102152.38;;;8.36;58.70
76864;BME280;65834;52.364;9.754;2023-05-18T02:17:12;102158.22;;;8.41;58.37
76864;BME280;65834;52.364;9.754;2023-05-18T02:19:43;102152.50;;;8.35;58.65
76864;BME280;65834;52.364;9.754;2023-05-18T02:22:14;102147.69;;;8.38;58.62
76864;BME280;65834;52.364;9.754;2023-05-18T02:24:43;102155.06;;;8.36;58.32
76864;BME280;65834;52.364;9.754;2023-05-18T02:27:16;102145.53;;;8.32;58.62
76864;BME280;65834;52.364;9.754;2023-05-18T02:29:46;102146.25;;;8.34;58.54
76864;BME280;65834;52.364;9.754;2023-05-18T02:32:17;102143.72;;;8.33;58.68
76864;BME280;65834;52.364;9.754;2023-05-18T02:34:50;102143.13;;;8.29;58.87
76864;BME280;65834;52.364;9.754;2023-05-18T02:37:20;102145.28;;;8.35;58.43
76864;BME280;65834;52.364;9.754;2023-05-18T02:39:49;102151.06;;;8.31;58.30
76864;BME280;65834;52.364;9.754;2023-05-18T02:42:21;102148.75;;;8.26;58.45
76864;BME280;65834;52.364;9.754;2023-05-18T02:44:53;102151.63;;;8.34;58.17
76864;BME280;65834;52.364;9.754;2023-05-18T02:47:23;102155.28;;;8.24;58.33
76864;BME280;65834;52.364;9.754;2023-05-18T02:49:53;102153.81;;;8.19;58.13
76864;BME280;65834;52.364;9.754;2023-05-18T02:52:23;102156.94;;;8.25;58.34
76864;BME280;65834;52.364;9.754;2023-05-18T02:54:53;102156.59;;;8.29;58.19
76864;BME280;65834;52.364;9.754;2023-05-18T02:57:41;102154.59;;;8.31;58.17
76864;BME280;65834;52.364;9.754;2023-05-18T03:00:15;102150.97;;;8.11;58.82
76864;BME280;65834;52.364;9.754;2023-05-18T03:02:45;102160.88;;;8.11;58.68
76864;BME280;65834;52.364;9.754;2023-05-18T03:05:16;102155.50;;;8.11;58.72
76864;BME280;65834;52.364;9.754;2023-05-18T03:07:49;102152.31;;;8.06;59.00
76864;BME280;65834;52.364;9.754;2023-05-18T03:10:20;102160.16;;;8.09;58.45
76864;BME280;65834;52.364;9.754;2023-05-18T03:12:53;102152.91;;;8.09;58.63
76864;BME280;65834;52.364;9.754;2023-05-18T03:15:22;102157.06;;;8.13;58.38
76864;BME280;65834;52.364;9.754;2023-05-18T03:17:52;102157.72;;;8.06;58.28
76864;BME280;65834;52.364;9.754;2023-05-18T03:20:22;102160.28;;;8.07;58.23
76864;BME280;65834;52.364;9.754;2023-05-18T03:22:52;102166.97;;;8.13;57.79
76864;BME280;65834;52.364;9.754;2023-05-18T03:25:23;102167.25;;;8.10;58.05
76864;BME280;65834;52.364;9.754;2023-05-18T03:27:55;102167.66;;;8.05;57.92
76864;BME280;65834;52.364;9.754;2023-05-18T03:30:26;102164.63;;;7.99;58.36
76864;BME280;65834;52.364;9.754;2023-05-18T03:32:56;102162.53;;;8.02;58.02
76864;BME280;65834;52.364;9.754;2023-05-18T03:35:27;102168.25;;;8.09;57.92
76864;BME280;65834;52.364;9.754;2023-05-18T03:37:58;102164.28;;;8.13;57.41
76864;BME280;65834;52.364;9.754;2023-05-18T03:40:28;102164.97;;;8.05;57.68
76864;BME280;65834;52.364;9.754;2023-05-18T03:43:00;102172.91;;;8.07;57.55
76864;BME280;65834;52.364;9.754;2023-05-18T03:45:31;102167.38;;;8.08;57.62
76864;BME280;65834;52.364;9.754;2023-05-18T03:48:01;102174.72;;;8.06;57.98
76864;BME280;65834;52.364;9.754;2023-05-18T03:50:31;102168.47;;;7.96;58.41
76864;BME280;65834;52.364;9.754;2023-05-18T03:53:01;102161.53;;;8.03;58.10
76864;BME280;65834;52.364;9.754;2023-05-18T03:55:30;102169.75;;;8.02;57.94
76864;BME280;65834;52.364;9.754;2023-05-18T03:58:02;102168.63;;;8.04;58.02
76864;BME280;65834;52.364;9.754;2023-05-18T04:00:32;102172.47;;;8.02;58.35
76864;BME280;65834;52.364;9.754;2023-05-18T04:03:02;102170.06;;;7.88;58.61
76864;BME280;65834;52.364;9.754;2023-05-18T04:05:32;102180.38;;;8.03;57.83
76864;BME280;65834;52.364;9.754;2023-05-18T04:08:01;102174.41;;;8.00;58.05
76864;BME280;65834;52.364;9.754;2023-05-18T04:10:33;102173.63;;;7.88;58.29
76864;BME280;65834;52.364;9.754;2023-05-18T04:13:05;102180.53;;;8.02;57.85
76864;BME280;65834;52.364;9.754;2023-05-18T04:15:35;102170.88;;;7.99;57.90
76864;BME280;65834;52.364;9.754;2023-05-18T04:18:04;102178.44;;;8.05;57.90
76864;BME280;65834;52.364;9.754;2023-05-18T04:20:36;102185.19;;;8.00;57.98
76864;BME280;65834;52.364;9.754;2023-05-18T04:23:07;102187.06;;;7.99;58.08
76864;BME280;65834;52.364;9.754;2023-05-18T04:25:37;102189.00;;;7.97;58.27
76864;BME280;65834;52.364;9.754;2023-05-18T04:28:10;102189.59;;;8.01;58.36
76864;BME280;65834;52.364;9.754;2023-05-18T04:30:40;102193.88;;;8.03;58.08
76864;BME280;65834;52.364;9.754;2023-05-18T04:33:10;102199.56;;;8.10;57.72
76864;BME280;65834;52.364;9.754;2023-05-18T04:35:43;102191.91;;;8.05;57.98
76864;BME280;65834;52.364;9.754;2023-05-18T04:38:12;102190.78;;;8.08;57.69
76864;BME280;65834;52.364;9.754;2023-05-18T04:40:43;102193.16;;;8.01;58.18
76864;BME280;65834;52.364;9.754;2023-05-18T04:43:16;102195.25;;;7.98;58.26
76864;BME280;65834;52.364;9.754;2023-05-18T04:45:46;102195.19;;;8.09;58.02
76864;BME280;65834;52.364;9.754;2023-05-18T04:48:17;102200.59;;;8.09;58.02
76864;BME280;65834;52.364;9.754;2023-05-18T04:50:47;102205.16;;;7.97;58.49
76864;BME280;65834;52.364;9.754;2023-05-18T04:53:20;102205.13;;;8.08;58.16
76864;BME280;65834;52.364;9.754;2023-05-18T04:55:50;102198.88;;;8.08;57.88
76864;BME280;65834;52.364;9.754;2023-05-18T04:58:22;102203.03;;;8.12;58.04
76864;BME280;65834;52.364;9.754;2023-05-18T05:00:55;102197.53;;;8.23;57.54
76864;BME280;65834;52.364;9.754;2023-05-18T05:03:28;102200.22;;;8.23;57.67
76864;BME280;65834;52.364;9.754;2023-05-18T05:05:58;102199.78;;;8.18;57.65
76864;BME280;65834;52.364;9.754;2023-05-18T05:08:28;102204.91;;;8.21;57.55
76864;BME280;65834;52.364;9.754;2023-05-18T05:10:58;102202.66;;;8.26;57.23
76864;BME280;65834;52.364;9.754;2023-05-18T05:13:30;102201.19;;;8.33;57.36
76864;BME280;65834;52.364;9.754;2023-05-18T05:16:01;102209.25;;;8.33;57.21
76864;BME280;65834;52.364;9.754;2023-05-18T05:18:31;102205.97;;;8.30;57.42
76864;BME280;65834;52.364;9.754;2023-05-18T05:21:01;102215.97;;;8.39;57.07
76864;BME280;65834;52.364;9.754;2023-05-18T05:23:33;102225.34;;;8.44;56.78
76864;BME280;65834;52.364;9.754;2023-05-18T05:26:03;102215.53;;;8.43;56.97
76864;BME280;65834;52.364;9.754;2023-05-18T05:28:36;102216.72;;;8.50;56.98
76864;BME280;65834;52.364;9.754;2023-05-18T05:31:06;102214.47;;;8.55;56.48
76864;BME280;65834;52.364;9.754;2023-05-18T05:33:36;102218.38;;;8.42;57.25
76864;BME280;65834;52.364;9.754;2023-05-18T05:36:07;102221.94;;;8.42;57.30
76864;BME280;65834;52.364;9.754;2023-05-18T05:38:37;102216.88;;;8.58;56.46
76864;BME280;65834;52.364;9.754;2023-05-18T05:41:06;102224.59;;;8.63;56.48
76864;BME280;65834;52.364;9.754;2023-05-18T05:43:39;102220.75;;;8.65;56.41
76864;BME280;65834;52.364;9.754;2023-05-18T05:46:09;102221.19;;;8.70;56.12
76864;BME280;65834;52.364;9.754;2023-05-18T05:48:38;102220.03;;;8.63;56.53
76864;BME280;65834;52.364;9.754;2023-05-18T05:51:08;102224.34;;;8.76;56.21
76864;BME280;65834;52.364;9.754;2023-05-18T05:53:38;102227.63;;;8.79;55.98
76864;BME280;65834;52.364;9.754;2023-05-18T05:56:09;102228.06;;;8.84;55.71
76864;BME280;65834;52.364;9.754;2023-05-18T05:58:42;102230.50;;;8.87;55.61
76864;BME280;65834;52.364;9.754;2023-05-18T06:01:12;102239.75;;;8.94;55.08
76864;BME280;65834;52.364;9.754;2023-05-18T06:03:41;102234.06;;;8.88;55.43
76864;BME280;65834;52.364;9.754;2023-05-18T06:06:12;102245.00;;;8.96;54.97
76864;BME280;65834;52.364;9.754;2023-05-18T06:08:41;102237.75;;;8.96;54.93
76864;BME280;65834;52.364;9.754;2023-05-18T06:11:11;102232.25;;;8.98;54.64
76864;BME280;65834;52.364;9.754;2023-05-18T06:13:44;102238.78;;;9.05;54.37
76864;BME280;65834;52.364;9.754;2023-05-18T06:16:13;102236.22;;;9.03;54.57
76864;BME280;65834;52.364;9.754;2023-05-18T06:18:43;102234.97;;;9.07;54.43
76864;BME280;65834;52.364;9.754;2023-05-18T06:21:14;102234.53;;;9.12;54.29
76864;BME280;65834;52.364;9.754;2023-05-18T06:23:44;102241.78;;;9.11;54.22
76864;BME280;65834;52.364;9.754;2023-05-18T06:26:27;102247.06;;;9.13;54.18
76864;BME280;65834;52.364;9.754;2023-05-18T06:29:18;102241.38;;;9.16;54.04
76864;BME280;65834;52.364;9.754;2023-05-18T06:32:15;102238.25;;;9.20;53.88
76864;BME280;65834;52.364;9.754;2023-05-18T06:34:51;102240.53;;;9.25;53.87
76864;BME280;65834;52.364;9.754;2023-05-18T06:37:22;102243.94;;;9.27;53.76
76864;BME280;65834;52.364;9.754;2023-05-18T06:39:51;102244.66;;;9.29;53.92
76864;BME280;65834;52.364;9.754;2023-05-18T06:42:21;102249.06;;;9.30;53.83
76864;BME280;65834;52.364;9.754;2023-05-18T06:45:03;102260.44;;;9.34;53.78
76864;BME280;65834;52.364;9.754;2023-05-18T06:47:46;102248.78;;;9.33;53.86
76864;BME280;65834;52.364;9.754;2023-05-18T06:50:16;102253.63;;;9.39;53.54
76864;BME280;65834;52.364;9.754;2023-05-18T06:52:46;102249.09;;;9.40;53.52
76864;BME280;65834;52.364;9.754;2023-05-18T06:55:17;102247.25;;;9.40;53.78
76864;BME280;65834;52.364;9.754;2023-05-18T06:57:46;102242.44;;;9.44;53.39
76864;BME280;65834;52.364;9.754;2023-05-18T07:00:20;102251.09;;;9.47;53.37
76864;BME280;65834;52.364;9.754;2023-05-18T07:02:50;102247.69;;;9.45;53.49
76864;BME280;65834;52.364;9.754;2023-05-18T07:05:20;102245.44;;;9.50;53.68
76864;BME280;65834;52.364;9.754;2023-05-18T07:07:50;102239.75;;;9.53;53.07
76864;BME280;65834;52.364;9.754;2023-05-18T07:10:19;102249.41;;;9.56;53.25
76864;BME280;65834;52.364;9.754;2023-05-18T07:12:49;102250.81;;;9.60;53.16
76864;BME280;65834;52.364;9.754;2023-05-18T07:15:21;102257.06;;;9.60;53.04
76864;BME280;65834;52.364;9.754;2023-05-18T07:17:52;102255.09;;;9.62;53.07
76864;BME280;65834;52.364;9.754;2023-05-18T07:20:22;102246.72;;;9.65;53.22
76864;BME280;65834;52.364;9.754;2023-05-18T07:22:52;102252.53;;;9.70;53.01
76864;BME280;65834;52.364;9.754;2023-05-18T07:25:23;102251.69;;;9.79;52.44
76864;BME280;65834;52.364;9.754;2023-05-18T07:27:53;102264.22;;;9.80;52.41
76864;BME280;65834;52.364;9.754;2023-05-18T07:30:25;102258.66;;;9.82;52.46
76864;BME280;65834;52.364;9.754;2023-05-18T07:32:55;102250.97;;;9.77;52.30
76864;BME280;65834;52.364;9.754;2023-05-18T07:35:24;102256.09;;;9.80;52.17
76864;BME280;65834;52.364;9.754;2023-05-18T07:37:55;102261.63;;;9.79;52.56
76864;BME280;65834;52.364;9.754;2023-05-18T07:40:24;102254.09;;;9.82;52.44
76864;BME280;65834;52.364;9.754;2023-05-18T07:42:54;102260.78;;;9.88;52.35
76864;BME280;65834;52.364;9.754;2023-05-18T07:45:26;102260.06;;;9.86;52.46
76864;BME280;65834;52.364;9.754;2023-05-18T07:47:56;102257.50;;;9.85;52.57
76864;BME280;65834;52.364;9.754;2023-05-18T07:50:26;102262.50;;;9.89;52.46
76864;BME280;65834;52.364;9.754;2023-05-18T07:52:56;102255.25;;;9.90;52.63
76864;BME280;65834;52.364;9.754;2023-05-18T07:55:26;102246.84;;;9.93;52.46
76864;BME280;65834;52.364;9.754;2023-05-18T07:57:56;102244.28;;;10.01;52.21
76864;BME280;65834;52.364;9.754;2023-05-18T08:00:29;102255.09;;;10.01;52.44
76864;BME280;65834;52.364;9.754;2023-05-18T08:02:59;102253.38;;;10.00;52.59
76864;BME280;65834;52.364;9.754;2023-05-18T08:05:29;102253.38;;;10.00;52.64
76864;BME280;65834;52.364;9.754;2023-05-18T08:07:58;102248.81;;;10.00;52.40
76864;BME280;65834;52.364;9.754;2023-05-18T08:10:32;102254.66;;;10.05;52.02
76864;BME280;65834;52.364;9.754;2023-05-18T08:13:01;102248.97;;;10.08;52.05
76864;BME280;65834;52.364;9.754;2023-05-18T08:15:34;102251.09;;;10.05;52.31
76864;BME280;65834;52.364;9.754;2023-05-18T08:18:04;102248.09;;;10.08;52.19
76864;BME280;65834;52.364;9.754;2023-05-18T08:20:34;102248.81;;;10.10;52.12
76864;BME280;65834;52.364;9.754;2023-05-18T08:23:04;102247.94;;;10.09;52.14
76864;BME280;65834;52.364;9.754;2023-05-18T08:25:33;102251.38;;;10.11;52.20
76864;BME280;65834;52.364;9.754;2023-05-18T08:28:03;102250.25;;;10.14;52.03
76864;BME280;65834;52.364;9.754;2023-05-18T08:30:35;102252.81;;;10.15;52.29
76864;BME280;65834;52.364;9.754;2023-05-18T08:33:05;102243.28;;;10.21;52.14
76864;BME280;65834;52.364;9.754;2023-05-18T08:35:35;102240.28;;;10.24;52.23
76864;BME280;65834;52.364;9.754;2023-05-18T08:38:05;102239.72;;;10.30;52.06
76864;BME280;65834;52.364;9.754;2023-05-18T08:40:41;102235.41;;;10.37;51.75
76864;BME280;65834;52.364;9.754;2023-05-18T08:43:15;102233.84;;;10.34;51.67
76864;BME280;65834;52.364;9.754;2023-05-18T08:46:02;102233.53;;;10.47;51.18
76864;BME280;65834;52.364;9.754;2023-05-18T08:48:32;102225.28;;;10.49;51.48
76864;BME280;65834;52.364;9.754;2023-05-18T08:51:04;102225.97;;;10.51;51.26
76864;BME280;65834;52.364;9.754;2023-05-18T08:53:36;102217.16;;;10.49;51.37
76864;BME280;65834;52.364;9.754;2023-05-18T08:56:07;102225.38;;;10.57;51.14
76864;BME280;65834;52.364;9.754;2023-05-18T08:58:43;102221.09;;;10.64;50.90
76864;BME280;65834;52.364;9.754;2023-05-18T09:01:19;102215.41;;;10.57;51.31
76864;BME280;65834;52.364;9.754;2023-05-18T09:03:55;102217.28;;;10.57;51.93
76864;BME280;65834;52.364;9.754;2023-05-18T09:06:27;102235.91;;;10.60;51.44
76864;BME280;65834;52.364;9.754;2023-05-18T09:08:59;102221.69;;;10.58;51.51
76864;BME280;65834;52.364;9.754;2023-05-18T09:11:32;102221.69;;;10.58;51.64
76864;BME280;65834;52.364;9.754;2023-05-18T09:14:01;102224.09;;;10.61;51.66
76864;BME280;65834;52.364;9.754;2023-05-18T09:16:34;102220.63;;;10.68;51.29
76864;BME280;65834;52.364;9.754;2023-05-18T09:19:04;102218.94;;;10.67;51.48
76864;BME280;65834;52.364;9.754;2023-05-18T09:21:33;102210.84;;;10.67;51.51
76864;BME280;65834;52.364;9.754;2023-05-18T09:24:04;102216.63;;;10.72;51.26
76864;BME280;65834;52.364;9.754;2023-05-18T09:26:33;102218.44;;;10.81;50.80
76864;BME280;65834;52.364;9.754;2023-05-18T09:29:14;102216.16;;;10.77;51.00
76864;BME280;65834;52.364;9.754;2023-05-18T09:31:47;102218.06;;;10.76;51.39
76864;BME280;65834;52.364;9.754;2023-05-18T09:34:17;102209.63;;;10.79;51.28
76864;BME280;65834;52.364;9.754;2023-05-18T09:36:48;102214.03;;;10.80;51.13
76864;BME280;65834;52.364;9.754;2023-05-18T09:39:18;102203.63;;;10.85;51.14
76864;BME280;65834;52.364;9.754;2023-05-18T09:41:53;102207.56;;;10.91;50.97
76864;BME280;65834;52.364;9.754;2023-05-18T09:44:29;102194.88;;;10.92;51.13
76864;BME280;65834;52.364;9.754;2023-05-18T09:47:07;102195.66;;;11.02;50.71
76864;BME280;65834;52.364;9.754;2023-05-18T09:49:37;102196.69;;;11.01;50.67
76864;BME280;65834;52.364;9.754;2023-05-18T09:52:08;102198.84;;;10.97;51.10
76864;BME280;65834;52.364;9.754;2023-05-18T09:54:38;102193.38;;;11.07;50.88
76864;BME280;65834;52.364;9.754;2023-05-18T09:57:08;102201.81;;;11.21;50.14
76864;BME280;65834;52.364;9.754;2023-05-18T09:59:39;102208.41;;;11.19;50.12
76864;BME280;65834;52.364;9.754;2023-05-18T10:02:12;102205.53;;;11.20;50.43
76864;BME280;65834;52.364;9.754;2023-05-18T10:04:43;102200.97;;;11.21;50.54
76864;BME280;65834;52.364;9.754;2023-05-18T10:07:15;102198.50;;;11.27;49.95
76864;BME280;65834;52.364;9.754;2023-05-18T10:09:45;102201.28;;;11.35;49.90
76864;BME280;65834;52.364;9.754;2023-05-18T10:12:16;102203.16;;;11.35;49.70
76864;BME280;65834;52.364;9.754;2023-05-18T10:14:47;102195.34;;;11.32;49.96
76864;BME280;65834;52.364;9.754;2023-05-18T10:17:20;102195.19;;;11.33;50.38
76864;BME280;65834;52.364;9.754;2023-05-18T10:19:53;102191.31;;;11.36;50.02
76864;BME280;65834;52.364;9.754;2023-05-18T10:22:25;102192.84;;;11.38;49.99
76864;BME280;65834;52.364;9.754;2023-05-18T10:24:57;102193.41;;;11.42;50.06
76864;BME280;65834;52.364;9.754;2023-05-18T10:27:28;102188.38;;;11.47;50.20
76864;BME280;65834;52.364;9.754;2023-05-18T10:29:59;102186.06;;;11.52;50.49
76864;BME280;65834;52.364;9.754;2023-05-18T10:32:34;102191.16;;;11.55;50.22
76864;BME280;65834;52.364;9.754;2023-05-18T10:35:07;102186.28;;;11.59;49.80
76864;BME280;65834;52.364;9.754;2023-05-18T10:37:39;102181.53;;;11.61;50.20
76864;BME280;65834;52.364;9.754;2023-05-18T10:40:09;102187.38;;;11.66;49.66
76864;BME280;65834;52.364;9.754;2023-05-18T10:42:41;102170.72;;;11.61;49.63
76864;BME280;65834;52.364;9.754;2023-05-18T10:45:11;102177.16;;;11.77;49.25
76864;BME280;65834;52.364;9.754;2023-05-18T10:47:43;102179.06;;;11.85;49.50
76864;BME280;65834;52.364;9.754;2023-05-18T10:50:13;102180.38;;;11.99;49.09
76864;BME280;65834;52.364;9.754;2023-05-18T10:52:43;102185.13;;;11.97;48.74
76864;BME280;65834;52.364;9.754;2023-05-18T10:55:14;102174.28;;;11.97;49.21
76864;BME280;65834;52.364;9.754;2023-05-18T10:57:50;102175.63;;;12.01;49.50
76864;BME280;65834;52.364;9.754;2023-05-18T11:00:21;102174.31;;;12.05;49.49
76864;BME280;65834;52.364;9.754;2023-05-18T11:02:54;102169.66;;;12.15;49.31
76864;BME280;65834;52.364;9.754;2023-05-18T11:05:24;102157.75;;;12.16;48.80
76864;BME280;65834;52.364;9.754;2023-05-18T11:08:01;102154.47;;;12.30;48.76
76864;BME280;65834;52.364;9.754;2023-05-18T11:10:33;102154.16;;;12.33;49.01
76864;BME280;65834;52.364;9.754;2023-05-18T11:13:03;102163.31;;;12.40;48.38
76864;BME280;65834;52.364;9.754;2023-05-18T11:18:41;102152.34;;;12.49;48.49
76864;BME280;65834;52.364;9.754;2023-05-18T11:24:21;102155.50;;;12.71;48.04
76864;BME280;65834;52.364;9.754;2023-05-18T11:26:53;102146.19;;;12.73;48.36
76864;BME280;65834;52.364;9.754;2023-05-18T11:29:29;102150.13;;;12.79;47.45
76864;BME280;65834;52.364;9.754;2023-05-18T11:31:59;102150.78;;;12.81;47.49
76864;BME280;65834;52.364;9.754;2023-05-18T11:34:39;102142.50;;;12.90;47.21
76864;BME280;65834;52.364;9.754;2023-05-18T11:37:12;102138.03;;;13.15;46.67
76864;BME280;65834;52.364;9.754;2023-05-18T11:39:52;102132.41;;;13.09;46.51
76864;BME280;65834;52.364;9.754;2023-05-18T11:42:33;102135.63;;;13.20;47.20
76864;BME280;65834;52.364;9.754;2023-05-18T11:45:06;102140.25;;;13.36;46.82
76864;BME280;65834;52.364;9.754;2023-05-18T11:47:36;102135.00;;;13.34;45.86
76864;BME280;65834;52.364;9.754;2023-05-18T11:50:10;102140.09;;;13.37;46.27
76864;BME280;65834;52.364;9.754;2023-05-18T11:52:47;102135.50;;;13.38;45.63
76864;BME280;65834;52.364;9.754;2023-05-18T11:55:18;102136.50;;;13.45;46.22
76864;BME280;65834;52.364;9.754;2023-05-18T11:57:50;102130.72;;;13.72;44.87
76864;BME280;65834;52.364;9.754;2023-05-18T12:00:20;102137.38;;;13.70;45.47
76864;BME280;65834;52.364;9.754;2023-05-18T12:02:55;102131.94;;;13.70;45.31
76864;BME280;65834;52.364;9.754;2023-05-18T12:05:29;102128.47;;;14.16;43.07
76864;BME280;65834;52.364;9.754;2023-05-18T12:07:59;102128.00;;;13.96;44.36
76864;BME280;65834;52.364;9.754;2023-05-18T12:10:29;102134.47;;;13.95;44.02
76864;BME280;65834;52.364;9.754;2023-05-18T12:13:00;102131.91;;;13.94;44.60
76864;BME280;65834;52.364;9.754;2023-05-18T12:15:31;102123.91;;;14.00;44.67
76864;BME280;65834;52.364;9.754;2023-05-18T12:18:00;102124.59;;;14.02;44.81
76864;BME280;65834;52.364;9.754;2023-05-18T12:20:33;102121.53;;;14.05;44.78
76864;BME280;65834;52.364;9.754;2023-05-18T12:23:02;102117.22;;;14.19;44.75
76864;BME280;65834;52.364;9.754;2023-05-18T12:25:32;102120.94;;;14.34;43.54
76864;BME280;65834;52.364;9.754;2023-05-18T12:28:02;102118.25;;;14.18;44.24
76864;BME280;65834;52.364;9.754;2023-05-18T12:30:33;102122.16;;;14.16;44.48
76864;BME280;65834;52.364;9.754;2023-05-18T12:33:04;102122.47;;;14.29;44.22
76864;BME280;65834;52.364;9.754;2023-05-18T12:35:36;102113.25;;;14.46;43.43
76864;BME280;65834;52.364;9.754;2023-05-18T12:38:06;102112.59;;;14.44;44.44
76864;BME280;65834;52.364;9.754;2023-05-18T12:40:37;102114.28;;;14.45;44.73
76864;BME280;65834;52.364;9.754;2023-05-18T12:43:12;102114.59;;;14.58;42.59
76864;BME280;65834;52.364;9.754;2023-05-18T12:45:43;102106.13;;;14.45;43.67
76864;BME280;65834;52.364;9.754;2023-05-18T12:48:12;102103.91;;;14.40;43.94
76864;BME280;65834;52.364;9.754;2023-05-18T12:50:49;102108.66;;;14.46;44.19
76864;BME280;65834;52.364;9.754;2023-05-18T12:53:18;102102.56;;;14.44;43.47
76864;BME280;65834;52.364;9.754;2023-05-18T12:55:55;102098.63;;;14.47;43.61
76864;BME280;65834;52.364;9.754;2023-05-18T12:58:27;102099.78;;;14.52;43.17
76864;BME280;65834;52.364;9.754;2023-05-18T13:01:05;102099.25;;;14.57;43.55
76864;BME280;65834;52.364;9.754;2023-05-18T13:03:38;102094.53;;;14.51;43.29
76864;BME280;65834;52.364;9.754;2023-05-18T13:06:11;102094.47;;;14.59;43.77
76864;BME280;65834;52.364;9.754;2023-05-18T13:08:41;102092.59;;;14.59;43.58
76864;BME280;65834;52.364;9.754;2023-05-18T13:11:13;102091.59;;;14.60;43.52
76864;BME280;65834;52.364;9.754;2023-05-18T13:13:56;102089.38;;;14.64;43.17
76864;BME280;65834;52.364;9.754;2023-05-18T13:16:26;102095.97;;;14.70;43.42
76864;BME280;65834;52.364;9.754;2023-05-18T13:18:58;102094.03;;;14.78;42.42
76864;BME280;65834;52.364;9.754;2023-05-18T13:21:31;102092.34;;;14.77;43.45
76864;BME280;65834;52.364;9.754;2023-05-18T13:24:01;102088.38;;;14.88;42.27
76864;BME280;65834;52.364;9.754;2023-05-18T13:26:30;102077.91;;;14.99;42.67
76864;BME280;65834;52.364;9.754;2023-05-18T13:29:00;102081.34;;;14.93;43.18